CheckWX is a tool to help pilots better visualize weather data.  It is not intended as a substitute for an official pre-flight weather briefing.

00:41:39 UTC

CYXH METAR
Medicine Hat Airport
Medicine Hat, Canada
Current

42 mins ago

CYXH 270000Z 24019G30KT 30SM FEW072 FEW130 BKN270 15/M03 A2972 RMK CU1AC2CI3 CU TR SLP077 DENSITY ALT 3100FT
Observed
Mar-27 @ 00:00 UTC
Wind
  • 240° at 19 KTS
  • Gusting to 30 KTS
Visibility
30 SM
Flight Rules
VFR
Cloud Levels
  • Few at 7,200' AGL
  • Few at 13,000' AGL
  • Broken at 27,000' AGL
Temperature
15°C / 59°F
Dewpoint
-3°C / 27°F
Humidity
29%
Altimeter
29.72" Hg
Pressure
1007.7 hPa
Previous

2 hours ago

CYXH 262300Z 25018G27KT 30SM FEW072 FEW130 BKN270 16/M01 A2971 RMK CU1AC1CI4 CU TR SLP071 DENSITY ALT 3300FT
Observed
Mar-26 @ 23:00 UTC
Wind
  • 250° at 18 KTS
  • Gusting to 27 KTS
Visibility
30 SM
Flight Rules
VFR
Cloud Levels
  • Few at 7,200' AGL
  • Few at 13,000' AGL
  • Broken at 27,000' AGL
Temperature
16°C / 61°F
Dewpoint
-1°C / 30°F
Humidity
31%
Altimeter
29.71" Hg
Pressure
1007.1 hPa
Previous

3 hours ago

CYXH 262200Z 24020G29KT 30SM FEW072 SCT130 BKN270 17/M01 A2971 RMK CU1AC3CI4 CU TR SLP070 DENSITY ALT 3400FT
Observed
Mar-26 @ 22:00 UTC
Wind
  • 240° at 20 KTS
  • Gusting to 29 KTS
Visibility
30 SM
Flight Rules
VFR
Cloud Levels
  • Few at 7,200' AGL
  • Scattered at 13,000' AGL
  • Broken at 27,000' AGL
Temperature
17°C / 63°F
Dewpoint
-1°C / 30°F
Humidity
30%
Altimeter
29.71" Hg
Pressure
1007 hPa